Facebook Twitter

Wetterstation Metz-Nancy-Lorraine

aktuelles Wetter
  Temperatur Wetter Niederschlag Luftdruck Wind
Mi, 17:30 Uhr 6° - 1011 hPa 29 km/h NW

Böen 58 km/h
Mi, 17:00 Uhr 11° 0 mm 1011 hPa 3 km/h N

Böen 18 km/h
Mi, 16:30 Uhr 10° - 1011 hPa 13 km/h W
Mi, 16:00 Uhr 10° 0 mm 1012 hPa 5 km/h NO

Böen 38 km/h
Mi, 15:30 Uhr 10° - 1012 hPa 16 km/h W
Mi, 15:00 Uhr 9° 0.1 mm 1013 hPa 3 km/h NO

Böen 17 km/h
Mi, 14:30 Uhr 6° - 1012 hPa 19 km/h NW
Mi, 14:00 Uhr 6° 0.1 mm 1014 hPa 4 km/h N

Böen 44 km/h
Mi, 13:30 Uhr 9° - 1012 hPa 24 km/h W
Mi, 13:00 Uhr 9° 0 mm 1013 hPa 4 km/h N

Böen 30 km/h
Mi, 12:30 Uhr 9° - 1012 hPa 19 km/h NW
Mi, 12:00 Uhr 8° 0.1 mm 1013 hPa 3 km/h N

Böen 23 km/h
Mi, 11:30 Uhr 7° - 1013 hPa 21 km/h W
Mi, 11:00 Uhr 6° 0.1 mm 1014 hPa 4 km/h N

Böen 35 km/h
Mi, 10:30 Uhr 7° - 1013 hPa 16 km/h NW
Mi, 10:00 Uhr 7° 0 mm 1014 hPa 3 km/h N

Böen 26 km/h
Mi, 09:30 Uhr 6° - 1013 hPa 19 km/h NW
Mi, 09:00 Uhr 6° 0 mm 1014 hPa 3 km/h N

Böen 28 km/h
Mi, 08:30 Uhr 5° - 1012 hPa 16 km/h W
Mi, 08:00 Uhr 4° - 0 mm 1014 hPa 2 km/h N

Böen 23 km/h

Alle Zeitangaben MESZ